createdAt,value
2023-05-15T00:01:53.702Z,12.23
2023-05-15T00:04:20.268Z,12.19
2023-05-15T00:06:46.735Z,12.21
2023-05-15T00:09:13.150Z,12.25
2023-05-15T00:11:39.687Z,12.16
2023-05-15T00:14:06.243Z,12.02
2023-05-15T00:16:32.677Z,11.88
2023-05-15T00:18:59.265Z,11.84
2023-05-15T00:21:25.772Z,11.81
2023-05-15T00:23:54.055Z,11.87
2023-05-15T00:26:20.814Z,11.92
2023-05-15T00:28:47.226Z,11.99
2023-05-15T00:31:14.756Z,12.02
2023-05-15T00:33:41.376Z,12.04
2023-05-15T00:36:08.638Z,11.94
2023-05-15T00:38:35.319Z,11.90
2023-05-15T00:41:02.405Z,11.82
2023-05-15T00:43:29.391Z,11.77
2023-05-15T00:45:56.826Z,11.63
2023-05-15T00:48:25.362Z,11.53
2023-05-15T00:50:52.220Z,11.46
2023-05-15T00:53:18.859Z,11.48
2023-05-15T00:55:50.096Z,11.49
2023-05-15T00:58:18.585Z,11.56
2023-05-15T01:00:46.413Z,11.62
2023-05-15T01:03:13.498Z,11.74
2023-05-15T01:05:40.257Z,11.79
2023-05-15T01:08:12.338Z,11.76
2023-05-15T01:10:40.132Z,11.71
2023-05-15T01:13:07.223Z,11.68
2023-05-15T01:15:34.120Z,11.70
2023-05-15T01:18:00.769Z,11.66
2023-05-15T01:20:27.786Z,11.64
2023-05-15T01:23:16.103Z,11.62
2023-05-15T01:26:24.429Z,11.57
2023-05-15T01:29:07.271Z,11.56
2023-05-15T01:31:35.193Z,11.57
2023-05-15T01:34:06.484Z,11.65
2023-05-15T01:36:39.291Z,11.70
2023-05-15T01:39:07.051Z,11.69
2023-05-15T01:41:46.589Z,11.67
2023-05-15T01:44:45.451Z,11.69
2023-05-15T01:47:14.546Z,11.75
2023-05-15T01:49:44.891Z,11.73
2023-05-15T01:52:26.539Z,11.79
2023-05-15T01:54:55.304Z,11.81
2023-05-15T01:57:23.481Z,11.81
2023-05-15T01:59:51.545Z,11.83
2023-05-15T02:02:19.130Z,11.88
2023-05-15T02:04:45.902Z,11.84
2023-05-15T02:07:13.246Z,11.79
2023-05-15T02:09:41.218Z,11.77
2023-05-15T02:12:09.171Z,11.63
2023-05-15T02:14:37.159Z,11.69
2023-05-15T02:17:03.562Z,11.65
2023-05-15T02:19:29.988Z,11.69
2023-05-15T02:21:56.352Z,11.71
2023-05-15T02:24:22.722Z,11.74
2023-05-15T02:27:22.590Z,11.80
2023-05-15T02:30:18.171Z,11.92
2023-05-15T02:33:12.945Z,12.00
2023-05-15T02:35:54.037Z,12.13
2023-05-15T02:38:26.234Z,12.19
2023-05-15T02:40:55.515Z,12.21
2023-05-15T02:43:22.372Z,12.29
2023-05-15T02:45:48.904Z,12.32
2023-05-15T02:48:17.066Z,12.33
2023-05-15T02:50:44.065Z,12.39
2023-05-15T02:53:10.657Z,12.34
2023-05-15T02:55:38.001Z,12.40
2023-05-15T02:58:04.868Z,12.46
2023-05-15T03:00:31.278Z,12.49
2023-05-15T03:02:57.755Z,12.36
2023-05-15T03:05:24.495Z,12.45
2023-05-15T03:07:51.067Z,12.57
2023-05-15T03:10:17.534Z,12.47
2023-05-15T03:12:43.936Z,12.27
2023-05-15T03:15:10.468Z,12.13
2023-05-15T03:17:36.887Z,12.07
2023-05-15T03:20:04.773Z,12.01
2023-05-15T03:22:31.239Z,11.92
2023-05-15T03:24:57.877Z,11.98
2023-05-15T03:27:24.302Z,12.00
2023-05-15T03:29:51.101Z,12.10
2023-05-15T03:32:17.904Z,12.16
2023-05-15T03:34:44.459Z,12.18
2023-05-15T03:37:10.890Z,12.21
2023-05-15T03:39:37.301Z,12.22
2023-05-15T03:42:03.934Z,12.23
2023-05-15T03:44:30.380Z,12.29
2023-05-15T03:46:56.939Z,12.40
2023-05-15T03:49:23.700Z,12.50
2023-05-15T03:51:50.176Z,12.54
2023-05-15T03:54:16.736Z,12.56
2023-05-15T03:56:43.189Z,12.55
2023-05-15T03:59:09.897Z,12.47
2023-05-15T04:01:44.230Z,12.40
2023-05-15T04:04:22.010Z,12.37
2023-05-15T04:06:48.463Z,12.40
2023-05-15T04:09:14.949Z,12.43
2023-05-15T04:11:41.404Z,12.49
2023-05-15T04:14:07.889Z,12.66
2023-05-15T04:16:34.326Z,12.70
2023-05-15T04:19:01.048Z,12.71
2023-05-15T04:21:27.530Z,12.75
2023-05-15T04:23:54.179Z,12.74
2023-05-15T04:26:20.759Z,12.75
2023-05-15T04:29:00.027Z,12.75
2023-05-15T04:31:31.669Z,12.71
2023-05-15T04:33:58.679Z,12.65
2023-05-15T04:36:25.489Z,12.60
2023-05-15T04:38:52.095Z,12.66
2023-05-15T04:41:18.687Z,12.67
2023-05-15T04:43:45.916Z,12.72
2023-05-15T04:46:12.514Z,12.82
2023-05-15T04:48:38.930Z,12.84
2023-05-15T04:51:05.434Z,12.90
2023-05-15T04:53:31.824Z,12.97
2023-05-15T04:55:58.466Z,13.04
2023-05-15T04:58:24.932Z,13.08
2023-05-15T05:00:51.377Z,13.16
2023-05-15T05:03:17.875Z,13.28
2023-05-15T05:05:44.592Z,13.33
2023-05-15T05:08:11.092Z,13.45
2023-05-15T05:10:37.763Z,13.52
2023-05-15T05:13:04.256Z,13.56
2023-05-15T05:15:30.656Z,13.76
2023-05-15T05:17:57.077Z,13.90
2023-05-15T05:20:23.493Z,14.02
2023-05-15T05:22:49.939Z,14.15
2023-05-15T05:25:16.373Z,14.24
2023-05-15T05:27:43.067Z,14.19
2023-05-15T05:30:10.131Z,14.29
2023-05-15T05:32:36.671Z,14.41
2023-05-15T05:35:03.998Z,14.65
2023-05-15T05:37:30.652Z,14.64
2023-05-15T05:39:57.084Z,14.74
2023-05-15T05:42:23.498Z,14.70
2023-05-15T05:44:49.952Z,14.78
2023-05-15T05:47:16.572Z,14.83
2023-05-15T05:49:43.544Z,14.84
2023-05-15T05:52:10.084Z,15.00
2023-05-15T05:54:37.071Z,15.05
2023-05-15T05:57:03.701Z,14.92
2023-05-15T05:59:30.608Z,15.07
2023-05-15T06:01:57.365Z,15.06
2023-05-15T06:04:24.041Z,15.21
2023-05-15T06:06:50.735Z,15.59
2023-05-15T06:09:18.048Z,15.87
2023-05-15T06:11:45.415Z,16.06
2023-05-15T06:14:12.020Z,16.02
2023-05-15T06:16:38.586Z,15.84
2023-05-15T06:19:05.085Z,15.75
2023-05-15T06:21:31.543Z,15.70
2023-05-15T06:23:58.310Z,15.77
2023-05-15T06:26:25.582Z,15.95
2023-05-15T06:28:52.020Z,16.15
2023-05-15T06:31:18.623Z,16.19
2023-05-15T06:33:45.340Z,16.40
2023-05-15T06:36:12.073Z,16.48
2023-05-15T06:38:38.714Z,16.48
2023-05-15T06:41:05.569Z,16.68
2023-05-15T06:43:32.044Z,16.72
2023-05-15T06:45:59.210Z,16.88
2023-05-15T06:48:25.772Z,17.40
2023-05-15T06:50:52.537Z,18.03
2023-05-15T06:53:21.064Z,18.49
2023-05-15T06:55:48.565Z,18.57
2023-05-15T06:58:17.889Z,18.94
2023-05-15T07:00:44.410Z,19.51
2023-05-15T07:03:10.961Z,19.75
2023-05-15T07:05:37.356Z,19.99
2023-05-15T07:08:05.749Z,20.20
2023-05-15T07:10:32.497Z,20.34
2023-05-15T07:12:59.235Z,20.79
2023-05-15T07:15:25.798Z,21.31
2023-05-15T07:17:52.401Z,21.99
2023-05-15T07:20:19.088Z,22.36
2023-05-15T07:22:55.690Z,22.05
2023-05-15T07:25:24.444Z,22.33
2023-05-15T07:27:51.694Z,22.51
2023-05-15T07:30:18.638Z,22.69
2023-05-15T07:32:45.179Z,22.12
2023-05-15T07:35:11.979Z,22.37
2023-05-15T07:37:38.886Z,22.47
2023-05-15T07:40:05.906Z,22.08
2023-05-15T07:42:32.226Z,21.90
2023-05-15T07:44:58.785Z,21.69
2023-05-15T07:47:25.570Z,21.68
2023-05-15T07:49:52.078Z,21.78
2023-05-15T07:52:19.022Z,21.91
2023-05-15T07:54:45.442Z,22.39
2023-05-15T07:57:12.981Z,22.11
2023-05-15T07:59:39.842Z,22.01
2023-05-15T08:02:07.079Z,22.72
2023-05-15T08:04:33.690Z,23.50
2023-05-15T08:07:00.421Z,23.80
2023-05-15T08:09:26.882Z,23.81
2023-05-15T08:11:56.496Z,23.70
2023-05-15T08:14:23.193Z,23.93
2023-05-15T08:16:50.320Z,24.14
2023-05-15T08:19:16.991Z,24.61
2023-05-15T08:21:43.557Z,24.29
2023-05-15T08:24:10.031Z,23.62
2023-05-15T08:26:36.492Z,22.68
2023-05-15T08:29:03.537Z,21.94
2023-05-15T08:31:30.198Z,21.54
2023-05-15T08:33:56.705Z,21.02
2023-05-15T08:36:23.358Z,20.76
2023-05-15T08:38:49.948Z,20.76
2023-05-15T08:41:40.652Z,21.23
2023-05-15T08:44:09.496Z,22.17
2023-05-15T08:46:36.654Z,22.58
2023-05-15T08:49:11.696Z,22.39
2023-05-15T08:51:39.282Z,22.03
2023-05-15T08:54:06.382Z,21.61
2023-05-15T08:56:32.995Z,21.27
2023-05-15T08:58:59.836Z,21.11
2023-05-15T09:01:28.141Z,21.20
2023-05-15T09:03:54.639Z,21.16
2023-05-15T09:06:22.542Z,21.15
2023-05-15T09:08:50.326Z,21.10
2023-05-15T09:11:17.074Z,21.00
2023-05-15T09:13:43.465Z,21.79
2023-05-15T09:16:09.994Z,22.86
2023-05-15T09:18:38.793Z,23.73
2023-05-15T09:21:27.446Z,23.99
2023-05-15T09:23:55.566Z,23.88
2023-05-15T09:26:22.128Z,23.66
2023-05-15T09:28:49.372Z,23.16
2023-05-15T09:31:20.383Z,22.82
2023-05-15T09:33:47.138Z,21.80
2023-05-15T09:36:21.694Z,21.58
2023-05-15T09:38:49.719Z,21.28
2023-05-15T09:41:24.914Z,21.00
2023-05-15T09:43:51.422Z,20.91
2023-05-15T09:46:18.055Z,20.76
2023-05-15T09:48:44.758Z,20.41
2023-05-15T09:51:17.154Z,20.28
2023-05-15T09:53:49.248Z,20.28
2023-05-15T09:56:16.702Z,20.61
2023-05-15T09:59:01.706Z,21.25
2023-05-15T10:01:28.583Z,21.94
2023-05-15T10:04:03.478Z,22.07
2023-05-15T10:06:37.641Z,22.52
2023-05-15T10:09:06.216Z,22.38
2023-05-15T10:11:39.240Z,21.27
2023-05-15T10:14:08.440Z,20.04
2023-05-15T10:16:37.064Z,19.30
2023-05-15T10:19:05.465Z,18.88
2023-05-15T10:21:40.141Z,18.65
2023-05-15T10:24:07.679Z,18.42
2023-05-15T10:26:39.460Z,18.41
2023-05-15T10:29:08.809Z,18.36
2023-05-15T10:31:38.816Z,18.54
2023-05-15T10:34:06.718Z,18.83
2023-05-15T10:36:34.714Z,19.38
2023-05-15T10:39:03.669Z,20.14
2023-05-15T10:41:31.335Z,20.47
2023-05-15T10:43:59.914Z,20.81
2023-05-15T10:46:27.928Z,21.43
2023-05-15T10:48:54.726Z,21.04
2023-05-15T10:51:27.565Z,21.32
2023-05-15T10:53:55.385Z,21.50
2023-05-15T10:56:26.784Z,21.62
2023-05-15T10:58:54.685Z,22.00
2023-05-15T11:01:32.316Z,21.64
2023-05-15T11:04:10.602Z,21.36
2023-05-15T11:06:39.228Z,21.13
2023-05-15T11:09:26.581Z,20.84
2023-05-15T11:11:57.064Z,20.54
2023-05-15T11:14:25.556Z,20.42
2023-05-15T11:16:55.217Z,20.06
2023-05-15T11:19:35.074Z,19.97
2023-05-15T11:22:08.887Z,19.75
2023-05-15T11:25:06.871Z,19.41
2023-05-15T11:27:39.742Z,19.25
2023-05-15T11:30:07.288Z,18.85
2023-05-15T11:33:21.236Z,18.78
2023-05-15T11:35:48.589Z,19.09
2023-05-15T11:38:24.948Z,19.33
2023-05-15T11:40:55.893Z,19.79
2023-05-15T11:43:37.368Z,20.29
2023-05-15T11:46:07.759Z,20.30
2023-05-15T11:48:39.860Z,20.23
2023-05-15T11:51:18.686Z,20.29
2023-05-15T11:53:45.535Z,20.61
2023-05-15T11:56:19.312Z,20.85
2023-05-15T11:58:49.599Z,20.85
2023-05-15T12:01:16.381Z,20.78
2023-05-15T12:03:42.970Z,21.46
2023-05-15T12:06:10.788Z,22.23
2023-05-15T12:08:38.613Z,21.91
2023-05-15T12:11:05.948Z,21.72
2023-05-15T12:13:33.301Z,21.36
2023-05-15T12:16:01.869Z,20.98
2023-05-15T12:18:28.519Z,20.53
2023-05-15T12:20:55.527Z,20.63
2023-05-15T12:23:24.265Z,21.01
2023-05-15T12:25:57.626Z,21.46
2023-05-15T12:28:24.661Z,22.04
2023-05-15T12:30:51.499Z,22.13
2023-05-15T12:33:18.648Z,21.66
2023-05-15T12:35:49.980Z,21.67
2023-05-15T12:38:16.721Z,21.59
2023-05-15T12:40:44.147Z,22.00
2023-05-15T12:43:11.103Z,21.83
2023-05-15T12:45:41.701Z,21.82
2023-05-15T12:48:13.436Z,22.07
2023-05-15T12:50:40.157Z,22.04
2023-05-15T12:53:06.796Z,22.27
2023-05-15T12:55:35.305Z,22.37
2023-05-15T12:58:09.167Z,22.34
2023-05-15T13:00:37.331Z,22.39
2023-05-15T13:03:05.147Z,22.51
2023-05-15T13:05:33.067Z,22.33
2023-05-15T13:08:00.450Z,22.13
2023-05-15T13:10:27.258Z,22.25
2023-05-15T13:12:55.903Z,22.31
2023-05-15T13:15:26.747Z,22.84
2023-05-15T13:17:56.635Z,23.23
2023-05-15T13:20:24.328Z,23.49
2023-05-15T13:22:51.642Z,23.51
2023-05-15T13:25:19.103Z,23.08
2023-05-15T13:27:47.118Z,22.64
2023-05-15T13:30:15.215Z,22.75
2023-05-15T13:32:41.678Z,23.22
2023-05-15T13:35:08.921Z,22.97
2023-05-15T13:37:37.814Z,22.39
2023-05-15T13:40:09.799Z,22.70
2023-05-15T13:42:40.689Z,23.16
2023-05-15T13:45:11.964Z,22.72
2023-05-15T13:47:39.538Z,21.94
2023-05-15T13:50:10.796Z,21.98
2023-05-15T13:52:37.958Z,21.87
2023-05-15T13:55:04.882Z,21.68
2023-05-15T13:57:32.150Z,21.64
2023-05-15T13:59:59.109Z,21.57
2023-05-15T14:02:29.282Z,21.25
2023-05-15T14:04:55.895Z,21.23
2023-05-15T14:07:23.664Z,21.38
2023-05-15T14:09:51.011Z,21.40
2023-05-15T14:12:17.734Z,20.78
2023-05-15T14:14:47.158Z,21.13
2023-05-15T14:17:14.961Z,21.24
2023-05-15T14:19:41.514Z,20.00
2023-05-15T14:22:08.326Z,20.18
2023-05-15T14:24:34.902Z,20.21
2023-05-15T14:27:01.706Z,20.23
2023-05-15T14:29:28.115Z,19.35
2023-05-15T14:31:54.608Z,18.92
2023-05-15T14:34:22.780Z,19.17
2023-05-15T14:36:49.940Z,19.47
2023-05-15T14:39:16.958Z,19.69
2023-05-15T14:41:44.801Z,19.95
2023-05-15T14:44:11.355Z,19.66
2023-05-15T14:46:38.173Z,19.46
2023-05-15T14:49:05.345Z,19.71
2023-05-15T14:51:32.281Z,19.83
2023-05-15T14:53:58.902Z,19.65
2023-05-15T14:56:25.872Z,19.49
2023-05-15T14:58:53.679Z,19.46
2023-05-15T15:01:20.761Z,19.59
2023-05-15T15:03:48.036Z,19.99
2023-05-15T15:06:14.629Z,20.52
2023-05-15T15:08:41.216Z,21.12
2023-05-15T15:11:07.868Z,21.74
2023-05-15T15:13:34.434Z,22.19
2023-05-15T15:16:00.938Z,22.51
2023-05-15T15:18:27.401Z,22.77
2023-05-15T15:20:53.806Z,22.63
2023-05-15T15:23:20.511Z,22.53
2023-05-15T15:25:46.975Z,22.25
2023-05-15T15:28:13.426Z,22.38
2023-05-15T15:30:40.098Z,22.32
2023-05-15T15:33:06.717Z,22.21
2023-05-15T15:35:33.246Z,21.68
2023-05-15T15:37:59.689Z,21.39
2023-05-15T15:40:26.579Z,20.86
2023-05-15T15:42:54.182Z,20.58
2023-05-15T15:45:20.809Z,19.89
2023-05-15T15:47:47.381Z,19.45
2023-05-15T15:50:13.854Z,19.17
2023-05-15T15:52:40.419Z,18.82
2023-05-15T15:55:07.611Z,18.55
2023-05-15T15:57:34.020Z,18.69
2023-05-15T16:00:00.800Z,18.43
2023-05-15T16:02:28.728Z,18.98
2023-05-15T16:04:55.495Z,19.23
2023-05-15T16:07:24.373Z,19.32
2023-05-15T16:10:00.260Z,19.28
2023-05-15T16:12:37.287Z,18.96
2023-05-15T16:15:17.335Z,18.47
2023-05-15T16:17:51.277Z,17.65
2023-05-15T16:20:17.919Z,17.47
2023-05-15T16:22:44.609Z,17.63
2023-05-15T16:25:11.259Z,17.61
2023-05-15T16:27:37.685Z,17.48
2023-05-15T16:30:04.607Z,17.47
2023-05-15T16:32:31.870Z,17.22
2023-05-15T16:34:58.271Z,16.77
2023-05-15T16:37:24.738Z,16.29
2023-05-15T16:39:51.373Z,15.73
2023-05-15T16:42:17.952Z,15.19
2023-05-15T16:44:44.567Z,15.01
2023-05-15T16:47:11.003Z,15.09
2023-05-15T16:49:37.451Z,15.11
2023-05-15T16:52:04.026Z,15.15
2023-05-15T16:54:31.257Z,15.30
2023-05-15T16:56:57.896Z,15.20
2023-05-15T16:59:24.368Z,15.18
2023-05-15T17:01:51.066Z,15.16
2023-05-15T17:04:17.688Z,15.14
2023-05-15T17:06:44.501Z,15.10
2023-05-15T17:09:10.893Z,15.19
2023-05-15T17:11:37.432Z,15.15
2023-05-15T17:14:03.820Z,15.12
2023-05-15T17:16:30.315Z,15.08
2023-05-15T17:18:56.837Z,15.09
2023-05-15T17:21:23.565Z,15.13
2023-05-15T17:23:53.110Z,15.18
2023-05-15T17:26:19.595Z,15.24
2023-05-15T17:28:46.247Z,15.37
2023-05-15T17:31:12.744Z,15.51
2023-05-15T17:33:39.152Z,15.51
2023-05-15T17:36:05.933Z,15.57
2023-05-15T17:38:32.472Z,15.73
2023-05-15T17:40:59.091Z,15.79
2023-05-15T17:43:25.558Z,15.81
2023-05-15T17:45:51.967Z,15.77
2023-05-15T17:48:18.441Z,15.82
2023-05-15T17:50:45.222Z,15.76
2023-05-15T17:53:11.711Z,15.69
2023-05-15T17:55:38.188Z,15.65
2023-05-15T17:58:04.668Z,15.66
2023-05-15T18:00:31.255Z,15.51
2023-05-15T18:02:57.809Z,15.33
2023-05-15T18:05:24.692Z,15.21
2023-05-15T18:07:51.444Z,15.12
2023-05-15T18:10:17.870Z,15.03
2023-05-15T18:12:44.407Z,15.01
2023-05-15T18:15:11.146Z,14.96
2023-05-15T18:17:37.632Z,14.86
2023-05-15T18:20:05.707Z,14.80
2023-05-15T18:22:32.339Z,14.93
2023-05-15T18:24:58.976Z,14.91
2023-05-15T18:27:25.693Z,14.81
2023-05-15T18:29:52.178Z,14.73
2023-05-15T18:32:19.383Z,14.63
2023-05-15T18:34:47.056Z,14.59
2023-05-15T18:37:13.627Z,14.61
2023-05-15T18:39:40.097Z,14.49
2023-05-15T18:42:06.863Z,14.43
2023-05-15T18:44:34.819Z,14.32
2023-05-15T18:47:02.264Z,14.29
2023-05-15T18:49:29.615Z,14.21
2023-05-15T18:51:56.569Z,14.18
2023-05-15T18:54:23.010Z,14.15
2023-05-15T18:56:49.767Z,14.10
2023-05-15T18:59:16.321Z,14.04
2023-05-15T19:01:42.834Z,14.02
2023-05-15T19:04:09.517Z,14.05
2023-05-15T19:06:36.036Z,14.05
2023-05-15T19:09:03.148Z,13.96
2023-05-15T19:11:29.637Z,13.94
2023-05-15T19:13:56.155Z,13.89
2023-05-15T19:16:26.973Z,13.87
2023-05-15T19:18:53.497Z,13.88
2023-05-15T19:21:21.099Z,13.91
2023-05-15T19:23:50.817Z,13.86
2023-05-15T19:26:17.215Z,13.82
2023-05-15T19:28:44.069Z,13.82
2023-05-15T19:31:20.371Z,13.80
2023-05-15T19:33:54.297Z,13.82
2023-05-15T19:36:20.884Z,13.86
2023-05-15T19:38:47.859Z,13.82
2023-05-15T19:41:14.711Z,13.88
2023-05-15T19:43:41.302Z,13.95
2023-05-15T19:46:07.783Z,13.98
2023-05-15T19:48:34.387Z,14.00
2023-05-15T19:51:00.853Z,13.96
2023-05-15T19:53:27.393Z,13.92
2023-05-15T19:55:54.039Z,13.89
2023-05-15T19:58:22.341Z,13.92
2023-05-15T20:00:49.860Z,13.96
2023-05-15T20:03:16.379Z,13.98
2023-05-15T20:05:43.188Z,13.99
2023-05-15T20:08:09.669Z,14.01
2023-05-15T20:10:36.188Z,13.99
2023-05-15T20:13:03.093Z,14.02
2023-05-15T20:15:31.455Z,14.02
2023-05-15T20:17:57.870Z,14.03
2023-05-15T20:20:24.619Z,14.02
2023-05-15T20:22:51.226Z,14.02
2023-05-15T20:25:17.722Z,14.05
2023-05-15T20:27:44.132Z,14.07
2023-05-15T20:30:11.429Z,14.14
2023-05-15T20:32:38.008Z,14.12
2023-05-15T20:35:05.346Z,14.16
2023-05-15T20:37:31.945Z,14.17
2023-05-15T20:39:58.354Z,14.13
2023-05-15T20:42:27.925Z,14.14
2023-05-15T20:44:54.397Z,14.15
2023-05-15T20:47:20.863Z,14.17
2023-05-15T20:49:47.245Z,14.17
2023-05-15T20:52:13.740Z,14.16
2023-05-15T20:54:40.379Z,14.17
2023-05-15T20:57:06.986Z,14.25
2023-05-15T20:59:33.933Z,14.24
2023-05-15T21:02:00.714Z,14.20
2023-05-15T21:04:27.415Z,14.17
2023-05-15T21:06:54.790Z,14.15
2023-05-15T21:09:21.229Z,14.20
2023-05-15T21:11:47.661Z,14.21
2023-05-15T21:14:14.498Z,14.22
2023-05-15T21:16:41.252Z,14.20
2023-05-15T21:19:07.862Z,14.17
2023-05-15T21:21:35.303Z,14.14
2023-05-15T21:24:05.118Z,14.12
2023-05-15T21:26:31.574Z,14.12
2023-05-15T21:28:59.114Z,14.10
2023-05-15T21:31:26.482Z,14.05
2023-05-15T21:33:53.201Z,14.06
2023-05-15T21:36:20.798Z,14.08
2023-05-15T21:38:47.213Z,14.03
2023-05-15T21:41:13.659Z,14.03
2023-05-15T21:43:40.116Z,13.97
2023-05-15T21:46:06.689Z,13.94
2023-05-15T21:48:33.305Z,13.94
2023-05-15T21:50:59.880Z,13.90
2023-05-15T21:53:26.366Z,13.89
2023-05-15T21:55:59.906Z,13.87
2023-05-15T21:58:26.345Z,13.91
2023-05-15T22:00:52.958Z,13.90
2023-05-15T22:03:20.225Z,13.88
2023-05-15T22:05:48.254Z,13.91
2023-05-15T22:08:15.153Z,13.95
2023-05-15T22:10:41.893Z,13.98
2023-05-15T22:13:09.072Z,14.02
2023-05-15T22:15:36.179Z,14.11
2023-05-15T22:18:03.686Z,14.13
2023-05-15T22:20:30.245Z,13.91
2023-05-15T22:22:56.767Z,13.94
2023-05-15T22:25:23.261Z,13.79
2023-05-15T22:27:49.701Z,13.86
2023-05-15T22:30:16.290Z,13.90
2023-05-15T22:32:42.730Z,13.99
2023-05-15T22:35:09.739Z,13.96
2023-05-15T22:37:36.710Z,14.02
2023-05-15T22:40:04.149Z,13.91
2023-05-15T22:42:30.654Z,13.86
2023-05-15T22:44:57.757Z,13.83
2023-05-15T22:47:28.404Z,13.90
2023-05-15T22:49:55.134Z,13.90
2023-05-15T22:52:21.676Z,13.92
2023-05-15T22:54:48.117Z,13.94
2023-05-15T22:57:14.562Z,13.95
2023-05-15T22:59:41.365Z,13.89
2023-05-15T23:02:07.832Z,14.03
2023-05-15T23:04:34.573Z,14.02
2023-05-15T23:07:01.017Z,13.96
2023-05-15T23:09:27.424Z,13.94
2023-05-15T23:11:54.104Z,13.95
2023-05-15T23:14:21.729Z,13.95
2023-05-15T23:16:49.743Z,13.91
2023-05-15T23:19:16.576Z,13.91
2023-05-15T23:21:43.163Z,13.88
2023-05-15T23:24:09.580Z,13.93
2023-05-15T23:26:35.990Z,13.96
2023-05-15T23:29:02.558Z,13.97
2023-05-15T23:31:29.163Z,14.02
2023-05-15T23:33:55.574Z,14.02
2023-05-15T23:36:22.188Z,14.02
2023-05-15T23:38:48.591Z,14.00
2023-05-15T23:41:15.272Z,13.93
2023-05-15T23:43:41.748Z,13.92
2023-05-15T23:46:08.369Z,13.87
2023-05-15T23:48:34.806Z,13.87
2023-05-15T23:51:01.284Z,13.85
2023-05-15T23:53:27.981Z,13.83
2023-05-15T23:55:54.359Z,13.84
2023-05-15T23:58:21.487Z,13.86
